sensor_id;sensor_type;location;lat;lon;timestamp;P1;durP1;ratioP1;P2;durP2;ratioP2
29362;SDS011;16349;53.672;10.014;2022-09-09T00:00:44;28.93;;;20.57;;
29362;SDS011;16349;53.672;10.014;2022-09-09T00:03:17;27.13;;;20.73;;
29362;SDS011;16349;53.672;10.014;2022-09-09T00:05:51;26.43;;;20.93;;
29362;SDS011;16349;53.672;10.014;2022-09-09T00:08:28;24.90;;;19.43;;
29362;SDS011;16349;53.672;10.014;2022-09-09T00:11:04;25.47;;;19.67;;
29362;SDS011;16349;53.672;10.014;2022-09-09T00:13:33;28.23;;;19.97;;
29362;SDS011;16349;53.672;10.014;2022-09-09T00:16:04;31.33;;;19.50;;
29362;SDS011;16349;53.672;10.014;2022-09-09T00:18:45;33.10;;;20.10;;
29362;SDS011;16349;53.672;10.014;2022-09-09T00:21:18;41.10;;;22.07;;
29362;SDS011;16349;53.672;10.014;2022-09-09T00:23:48;44.40;;;21.33;;
29362;SDS011;16349;53.672;10.014;2022-09-09T00:26:19;37.60;;;21.53;;
29362;SDS011;16349;53.672;10.014;2022-09-09T00:28:59;38.23;;;21.83;;
29362;SDS011;16349;53.672;10.014;2022-09-09T00:31:31;38.27;;;22.27;;
29362;SDS011;16349;53.672;10.014;2022-09-09T00:34:02;50.37;;;22.40;;
29362;SDS011;16349;53.672;10.014;2022-09-09T00:36:38;33.73;;;23.37;;
29362;SDS011;16349;53.672;10.014;2022-09-09T00:39:06;62.40;;;24.43;;
29362;SDS011;16349;53.672;10.014;2022-09-09T00:41:48;47.10;;;23.70;;
29362;SDS011;16349;53.672;10.014;2022-09-09T00:44:28;50.70;;;23.30;;
29362;SDS011;16349;53.672;10.014;2022-09-09T00:47:04;50.63;;;24.10;;
29362;SDS011;16349;53.672;10.014;2022-09-09T00:49:43;60.57;;;24.03;;
29362;SDS011;16349;53.672;10.014;2022-09-09T00:52:23;59.43;;;25.77;;
29362;SDS011;16349;53.672;10.014;2022-09-09T00:55:03;81.70;;;26.43;;
29362;SDS011;16349;53.672;10.014;2022-09-09T00:57:35;63.07;;;26.50;;
29362;SDS011;16349;53.672;10.014;2022-09-09T01:00:19;87.30;;;27.83;;
29362;SDS011;16349;53.672;10.014;2022-09-09T01:05:45;90.83;;;28.97;;
29362;SDS011;16349;53.672;10.014;2022-09-09T01:08:31;81.73;;;28.73;;
29362;SDS011;16349;53.672;10.014;2022-09-09T01:11:21;67.67;;;28.70;;
29362;SDS011;16349;53.672;10.014;2022-09-09T01:13:52;84.53;;;29.00;;
29362;SDS011;16349;53.672;10.014;2022-09-09T01:16:26;96.03;;;29.30;;
29362;SDS011;16349;53.672;10.014;2022-09-09T01:18:57;90.50;;;31.80;;
29362;SDS011;16349;53.672;10.014;2022-09-09T01:21:30;71.70;;;30.97;;
29362;SDS011;16349;53.672;10.014;2022-09-09T01:24:14;66.53;;;30.37;;
29362;SDS011;16349;53.672;10.014;2022-09-09T01:27:11;75.87;;;29.97;;
29362;SDS011;16349;53.672;10.014;2022-09-09T01:29:41;97.00;;;31.77;;
29362;SDS011;16349;53.672;10.014;2022-09-09T01:35:10;72.50;;;32.60;;
29362;SDS011;16349;53.672;10.014;2022-09-09T01:37:41;82.07;;;32.57;;
29362;SDS011;16349;53.672;10.014;2022-09-09T01:40:08;64.50;;;31.93;;
29362;SDS011;16349;53.672;10.014;2022-09-09T01:42:37;61.30;;;32.03;;
29362;SDS011;16349;53.672;10.014;2022-09-09T01:45:04;68.93;;;32.23;;
29362;SDS011;16349;53.672;10.014;2022-09-09T01:47:33;68.07;;;32.03;;
29362;SDS011;16349;53.672;10.014;2022-09-09T01:50:22;58.60;;;31.23;;
29362;SDS011;16349;53.672;10.014;2022-09-09T01:52:50;73.20;;;31.93;;
29362;SDS011;16349;53.672;10.014;2022-09-09T01:55:28;61.27;;;31.17;;
29362;SDS011;16349;53.672;10.014;2022-09-09T01:58:01;67.57;;;29.73;;
29362;SDS011;16349;53.672;10.014;2022-09-09T02:00:43;57.50;;;30.57;;
29362;SDS011;16349;53.672;10.014;2022-09-09T02:03:22;58.20;;;29.37;;
29362;SDS011;16349;53.672;10.014;2022-09-09T02:06:05;57.30;;;29.90;;
29362;SDS011;16349;53.672;10.014;2022-09-09T02:08:42;61.43;;;30.53;;
29362;SDS011;16349;53.672;10.014;2022-09-09T02:11:13;51.03;;;28.03;;
29362;SDS011;16349;53.672;10.014;2022-09-09T02:14:16;53.70;;;27.47;;
29362;SDS011;16349;53.672;10.014;2022-09-09T02:16:50;51.97;;;28.30;;
29362;SDS011;16349;53.672;10.014;2022-09-09T02:19:27;47.13;;;27.03;;
29362;SDS011;16349;53.672;10.014;2022-09-09T02:22:05;67.67;;;27.57;;
29362;SDS011;16349;53.672;10.014;2022-09-09T02:24:34;54.30;;;27.63;;
29362;SDS011;16349;53.672;10.014;2022-09-09T02:27:21;45.20;;;26.57;;
29362;SDS011;16349;53.672;10.014;2022-09-09T02:29:51;48.20;;;26.57;;
29362;SDS011;16349;53.672;10.014;2022-09-09T02:32:36;47.53;;;25.70;;
29362;SDS011;16349;53.672;10.014;2022-09-09T02:35:10;61.53;;;27.00;;
29362;SDS011;16349;53.672;10.014;2022-09-09T02:37:42;57.47;;;26.40;;
29362;SDS011;16349;53.672;10.014;2022-09-09T02:40:12;49.60;;;25.33;;
29362;SDS011;16349;53.672;10.014;2022-09-09T02:42:44;47.33;;;25.90;;
29362;SDS011;16349;53.672;10.014;2022-09-09T02:45:15;52.80;;;24.53;;
29362;SDS011;16349;53.672;10.014;2022-09-09T02:47:48;42.57;;;23.87;;
29362;SDS011;16349;53.672;10.014;2022-09-09T02:50:23;62.13;;;25.20;;
29362;SDS011;16349;53.672;10.014;2022-09-09T02:52:59;54.00;;;26.13;;
29362;SDS011;16349;53.672;10.014;2022-09-09T02:55:37;45.20;;;24.50;;
29362;SDS011;16349;53.672;10.014;2022-09-09T02:58:09;62.13;;;24.83;;
29362;SDS011;16349;53.672;10.014;2022-09-09T03:00:42;71.93;;;26.30;;
29362;SDS011;16349;53.672;10.014;2022-09-09T03:03:12;46.93;;;25.27;;
29362;SDS011;16349;53.672;10.014;2022-09-09T03:05:39;50.63;;;24.63;;
29362;SDS011;16349;53.672;10.014;2022-09-09T03:08:06;42.13;;;23.10;;
29362;SDS011;16349;53.672;10.014;2022-09-09T03:10:33;40.83;;;23.53;;
29362;SDS011;16349;53.672;10.014;2022-09-09T03:13:02;52.00;;;23.70;;
29362;SDS011;16349;53.672;10.014;2022-09-09T03:15:33;50.93;;;23.20;;
29362;SDS011;16349;53.672;10.014;2022-09-09T03:18:02;55.30;;;24.57;;
29362;SDS011;16349;53.672;10.014;2022-09-09T03:20:30;66.03;;;23.60;;
29362;SDS011;16349;53.672;10.014;2022-09-09T03:22:58;55.30;;;24.83;;
29362;SDS011;16349;53.672;10.014;2022-09-09T03:25:27;57.80;;;24.90;;
29362;SDS011;16349;53.672;10.014;2022-09-09T03:27:54;63.43;;;25.67;;
29362;SDS011;16349;53.672;10.014;2022-09-09T03:30:23;58.10;;;25.70;;
29362;SDS011;16349;53.672;10.014;2022-09-09T03:32:50;47.77;;;25.63;;
29362;SDS011;16349;53.672;10.014;2022-09-09T03:35:19;47.60;;;24.43;;
29362;SDS011;16349;53.672;10.014;2022-09-09T03:37:46;43.50;;;24.40;;
29362;SDS011;16349;53.672;10.014;2022-09-09T03:40:14;44.60;;;25.73;;
29362;SDS011;16349;53.672;10.014;2022-09-09T03:42:44;43.87;;;25.07;;
29362;SDS011;16349;53.672;10.014;2022-09-09T03:45:10;37.47;;;24.37;;
29362;SDS011;16349;53.672;10.014;2022-09-09T03:47:39;44.83;;;25.50;;
29362;SDS011;16349;53.672;10.014;2022-09-09T03:50:07;42.90;;;25.60;;
29362;SDS011;16349;53.672;10.014;2022-09-09T03:52:42;43.17;;;25.23;;
29362;SDS011;16349;53.672;10.014;2022-09-09T03:55:18;40.63;;;24.87;;
29362;SDS011;16349;53.672;10.014;2022-09-09T03:57:45;43.37;;;25.57;;
29362;SDS011;16349;53.672;10.014;2022-09-09T04:00:12;43.27;;;24.90;;
29362;SDS011;16349;53.672;10.014;2022-09-09T04:02:44;47.67;;;25.50;;
29362;SDS011;16349;53.672;10.014;2022-09-09T04:05:13;40.33;;;24.67;;
29362;SDS011;16349;53.672;10.014;2022-09-09T04:07:44;34.93;;;23.70;;
29362;SDS011;16349;53.672;10.014;2022-09-09T04:10:11;37.23;;;23.53;;
29362;SDS011;16349;53.672;10.014;2022-09-09T04:12:39;35.30;;;23.13;;
29362;SDS011;16349;53.672;10.014;2022-09-09T04:15:06;34.40;;;23.20;;
29362;SDS011;16349;53.672;10.014;2022-09-09T04:17:35;36.33;;;24.37;;
29362;SDS011;16349;53.672;10.014;2022-09-09T04:20:02;38.63;;;23.47;;
29362;SDS011;16349;53.672;10.014;2022-09-09T04:22:29;33.57;;;22.83;;
29362;SDS011;16349;53.672;10.014;2022-09-09T04:24:59;35.67;;;22.40;;
29362;SDS011;16349;53.672;10.014;2022-09-09T04:27:27;36.80;;;22.63;;
29362;SDS011;16349;53.672;10.014;2022-09-09T04:29:54;35.87;;;22.23;;
29362;SDS011;16349;53.672;10.014;2022-09-09T04:32:24;33.43;;;22.37;;
29362;SDS011;16349;53.672;10.014;2022-09-09T04:34:51;40.67;;;23.33;;
29362;SDS011;16349;53.672;10.014;2022-09-09T04:37:19;34.93;;;21.33;;
29362;SDS011;16349;53.672;10.014;2022-09-09T04:39:46;35.23;;;22.13;;
29362;SDS011;16349;53.672;10.014;2022-09-09T04:42:14;33.87;;;22.67;;
29362;SDS011;16349;53.672;10.014;2022-09-09T04:44:42;38.27;;;22.57;;
29362;SDS011;16349;53.672;10.014;2022-09-09T04:47:09;33.47;;;22.10;;
29362;SDS011;16349;53.672;10.014;2022-09-09T04:49:36;34.87;;;20.70;;
29362;SDS011;16349;53.672;10.014;2022-09-09T04:52:04;34.07;;;21.03;;
29362;SDS011;16349;53.672;10.014;2022-09-09T04:54:33;34.73;;;20.70;;
29362;SDS011;16349;53.672;10.014;2022-09-09T04:57:00;30.00;;;20.47;;
29362;SDS011;16349;53.672;10.014;2022-09-09T04:59:28;32.00;;;21.20;;
29362;SDS011;16349;53.672;10.014;2022-09-09T05:01:57;30.07;;;20.30;;
29362;SDS011;16349;53.672;10.014;2022-09-09T05:04:24;30.17;;;21.07;;
29362;SDS011;16349;53.672;10.014;2022-09-09T05:06:51;31.10;;;19.93;;
29362;SDS011;16349;53.672;10.014;2022-09-09T05:09:18;29.53;;;20.63;;
29362;SDS011;16349;53.672;10.014;2022-09-09T05:11:45;27.30;;;19.27;;
29362;SDS011;16349;53.672;10.014;2022-09-09T05:14:23;24.77;;;18.17;;
29362;SDS011;16349;53.672;10.014;2022-09-09T05:16:52;27.17;;;18.30;;
29362;SDS011;16349;53.672;10.014;2022-09-09T05:19:20;24.80;;;18.17;;
29362;SDS011;16349;53.672;10.014;2022-09-09T05:21:48;24.70;;;17.23;;
29362;SDS011;16349;53.672;10.014;2022-09-09T05:24:19;24.43;;;17.67;;
29362;SDS011;16349;53.672;10.014;2022-09-09T05:26:51;24.50;;;17.03;;
29362;SDS011;16349;53.672;10.014;2022-09-09T05:29:18;22.70;;;15.87;;
29362;SDS011;16349;53.672;10.014;2022-09-09T05:31:45;19.10;;;15.93;;
29362;SDS011;16349;53.672;10.014;2022-09-09T05:34:15;24.00;;;16.30;;
29362;SDS011;16349;53.672;10.014;2022-09-09T05:36:42;19.90;;;15.03;;
29362;SDS011;16349;53.672;10.014;2022-09-09T05:39:09;18.50;;;15.23;;
29362;SDS011;16349;53.672;10.014;2022-09-09T05:41:37;17.80;;;13.53;;
29362;SDS011;16349;53.672;10.014;2022-09-09T05:44:04;16.80;;;13.43;;
29362;SDS011;16349;53.672;10.014;2022-09-09T05:46:36;17.40;;;13.80;;
29362;SDS011;16349;53.672;10.014;2022-09-09T05:49:03;19.90;;;13.50;;
29362;SDS011;16349;53.672;10.014;2022-09-09T05:51:32;15.10;;;13.40;;
29362;SDS011;16349;53.672;10.014;2022-09-09T05:54:11;14.53;;;12.90;;
29362;SDS011;16349;53.672;10.014;2022-09-09T05:56:44;13.63;;;11.77;;
29362;SDS011;16349;53.672;10.014;2022-09-09T05:59:11;18.33;;;12.83;;
29362;SDS011;16349;53.672;10.014;2022-09-09T06:01:39;16.47;;;12.43;;
29362;SDS011;16349;53.672;10.014;2022-09-09T06:04:10;15.17;;;11.77;;
29362;SDS011;16349;53.672;10.014;2022-09-09T06:06:40;18.00;;;12.40;;
29362;SDS011;16349;53.672;10.014;2022-09-09T06:09:11;14.60;;;11.37;;
29362;SDS011;16349;53.672;10.014;2022-09-09T06:11:42;15.20;;;10.87;;
29362;SDS011;16349;53.672;10.014;2022-09-09T06:14:11;13.07;;;11.70;;
29362;SDS011;16349;53.672;10.014;2022-09-09T06:16:39;15.43;;;10.77;;
29362;SDS011;16349;53.672;10.014;2022-09-09T06:19:19;15.67;;;11.33;;
29362;SDS011;16349;53.672;10.014;2022-09-09T06:21:48;13.27;;;11.60;;
29362;SDS011;16349;53.672;10.014;2022-09-09T06:24:15;14.30;;;11.47;;
29362;SDS011;16349;53.672;10.014;2022-09-09T06:26:44;16.73;;;11.37;;
29362;SDS011;16349;53.672;10.014;2022-09-09T06:29:15;14.27;;;11.77;;
29362;SDS011;16349;53.672;10.014;2022-09-09T06:31:43;13.23;;;11.30;;
29362;SDS011;16349;53.672;10.014;2022-09-09T06:34:16;13.83;;;11.37;;
29362;SDS011;16349;53.672;10.014;2022-09-09T06:36:49;11.83;;;10.23;;
29362;SDS011;16349;53.672;10.014;2022-09-09T06:39:17;14.43;;;11.63;;
29362;SDS011;16349;53.672;10.014;2022-09-09T06:41:44;15.87;;;11.63;;
29362;SDS011;16349;53.672;10.014;2022-09-09T06:44:38;14.10;;;10.67;;
29362;SDS011;16349;53.672;10.014;2022-09-09T06:47:08;13.93;;;11.23;;
29362;SDS011;16349;53.672;10.014;2022-09-09T06:49:37;12.40;;;10.53;;
29362;SDS011;16349;53.672;10.014;2022-09-09T06:52:09;14.43;;;10.73;;
29362;SDS011;16349;53.672;10.014;2022-09-09T06:54:36;14.00;;;10.03;;
29362;SDS011;16349;53.672;10.014;2022-09-09T06:57:04;14.30;;;10.30;;
29362;SDS011;16349;53.672;10.014;2022-09-09T06:59:32;12.00;;;10.60;;
29362;SDS011;16349;53.672;10.014;2022-09-09T07:01:59;11.73;;;10.20;;
29362;SDS011;16349;53.672;10.014;2022-09-09T07:04:27;11.67;;;10.00;;
29362;SDS011;16349;53.672;10.014;2022-09-09T07:06:54;10.90;;;9.73;;
29362;SDS011;16349;53.672;10.014;2022-09-09T07:09:24;11.57;;;9.50;;
29362;SDS011;16349;53.672;10.014;2022-09-09T07:11:52;10.20;;;9.20;;
29362;SDS011;16349;53.672;10.014;2022-09-09T07:14:21;12.77;;;10.10;;
29362;SDS011;16349;53.672;10.014;2022-09-09T07:16:53;9.87;;;8.90;;
29362;SDS011;16349;53.672;10.014;2022-09-09T07:19:20;13.00;;;9.40;;
29362;SDS011;16349;53.672;10.014;2022-09-09T07:21:50;9.33;;;8.37;;
29362;SDS011;16349;53.672;10.014;2022-09-09T07:24:19;10.13;;;8.97;;
29362;SDS011;16349;53.672;10.014;2022-09-09T07:26:49;9.17;;;8.20;;
29362;SDS011;16349;53.672;10.014;2022-09-09T07:29:17;10.37;;;8.30;;
29362;SDS011;16349;53.672;10.014;2022-09-09T07:31:44;8.77;;;7.87;;
29362;SDS011;16349;53.672;10.014;2022-09-09T07:34:15;8.47;;;7.33;;
29362;SDS011;16349;53.672;10.014;2022-09-09T07:36:42;8.33;;;6.93;;
29362;SDS011;16349;53.672;10.014;2022-09-09T07:39:12;9.87;;;7.60;;
29362;SDS011;16349;53.672;10.014;2022-09-09T07:41:44;11.30;;;6.90;;
29362;SDS011;16349;53.672;10.014;2022-09-09T07:44:15;7.93;;;6.87;;
29362;SDS011;16349;53.672;10.014;2022-09-09T07:46:47;7.73;;;6.93;;
29362;SDS011;16349;53.672;10.014;2022-09-09T07:49:18;7.90;;;6.07;;
29362;SDS011;16349;53.672;10.014;2022-09-09T07:51:46;9.43;;;6.17;;
29362;SDS011;16349;53.672;10.014;2022-09-09T07:54:15;8.77;;;7.10;;
29362;SDS011;16349;53.672;10.014;2022-09-09T07:56:46;7.23;;;6.30;;
29362;SDS011;16349;53.672;10.014;2022-09-09T07:59:16;7.50;;;6.40;;
29362;SDS011;16349;53.672;10.014;2022-09-09T08:01:47;7.97;;;6.30;;
29362;SDS011;16349;53.672;10.014;2022-09-09T08:04:21;8.10;;;5.90;;
29362;SDS011;16349;53.672;10.014;2022-09-09T08:06:50;7.77;;;5.90;;
29362;SDS011;16349;53.672;10.014;2022-09-09T08:09:21;6.23;;;5.57;;
29362;SDS011;16349;53.672;10.014;2022-09-09T08:11:50;5.53;;;4.97;;
29362;SDS011;16349;53.672;10.014;2022-09-09T08:14:18;6.03;;;5.10;;
29362;SDS011;16349;53.672;10.014;2022-09-09T08:16:46;6.10;;;5.47;;
29362;SDS011;16349;53.672;10.014;2022-09-09T08:19:16;6.83;;;5.20;;
29362;SDS011;16349;53.672;10.014;2022-09-09T08:21:45;6.30;;;4.67;;
29362;SDS011;16349;53.672;10.014;2022-09-09T08:24:14;6.13;;;4.33;;
29362;SDS011;16349;53.672;10.014;2022-09-09T08:26:45;5.57;;;4.07;;
29362;SDS011;16349;53.672;10.014;2022-09-09T08:29:16;4.33;;;3.30;;
29362;SDS011;16349;53.672;10.014;2022-09-09T08:31:46;7.43;;;4.40;;
29362;SDS011;16349;53.672;10.014;2022-09-09T08:34:15;6.50;;;4.17;;
29362;SDS011;16349;53.672;10.014;2022-09-09T08:36:43;6.67;;;3.70;;
29362;SDS011;16349;53.672;10.014;2022-09-09T08:39:13;5.00;;;3.70;;
29362;SDS011;16349;53.672;10.014;2022-09-09T08:41:57;6.63;;;3.20;;
29362;SDS011;16349;53.672;10.014;2022-09-09T08:44:56;5.10;;;3.13;;
29362;SDS011;16349;53.672;10.014;2022-09-09T08:47:34;4.37;;;3.70;;
29362;SDS011;16349;53.672;10.014;2022-09-09T08:50:16;8.30;;;4.23;;
29362;SDS011;16349;53.672;10.014;2022-09-09T08:52:52;3.20;;;3.00;;
29362;SDS011;16349;53.672;10.014;2022-09-09T08:55:24;5.07;;;2.90;;
29362;SDS011;16349;53.672;10.014;2022-09-09T08:57:56;3.70;;;3.10;;
29362;SDS011;16349;53.672;10.014;2022-09-09T09:00:32;3.00;;;2.30;;
29362;SDS011;16349;53.672;10.014;2022-09-09T09:03:06;6.20;;;3.07;;
29362;SDS011;16349;53.672;10.014;2022-09-09T09:05:44;5.63;;;3.53;;
29362;SDS011;16349;53.672;10.014;2022-09-09T09:08:20;3.77;;;2.20;;
29362;SDS011;16349;53.672;10.014;2022-09-09T09:10:56;5.90;;;4.00;;
29362;SDS011;16349;53.672;10.014;2022-09-09T09:13:27;6.47;;;4.50;;
29362;SDS011;16349;53.672;10.014;2022-09-09T09:16:04;3.40;;;3.10;;
29362;SDS011;16349;53.672;10.014;2022-09-09T09:18:39;2.57;;;2.13;;
29362;SDS011;16349;53.672;10.014;2022-09-09T09:21:08;3.47;;;2.37;;
29362;SDS011;16349;53.672;10.014;2022-09-09T09:23:43;5.37;;;1.90;;
29362;SDS011;16349;53.672;10.014;2022-09-09T09:26:16;6.17;;;2.70;;
29362;SDS011;16349;53.672;10.014;2022-09-09T09:28:45;3.50;;;3.17;;
29362;SDS011;16349;53.672;10.014;2022-09-09T09:31:19;3.90;;;3.60;;
29362;SDS011;16349;53.672;10.014;2022-09-09T09:33:47;4.00;;;3.30;;
29362;SDS011;16349;53.672;10.014;2022-09-09T09:36:18;3.57;;;3.27;;
29362;SDS011;16349;53.672;10.014;2022-09-09T09:38:54;5.27;;;3.97;;
29362;SDS011;16349;53.672;10.014;2022-09-09T09:41:29;4.60;;;3.70;;
29362;SDS011;16349;53.672;10.014;2022-09-09T09:43:58;3.90;;;3.00;;
29362;SDS011;16349;53.672;10.014;2022-09-09T09:46:29;3.00;;;2.73;;
29362;SDS011;16349;53.672;10.014;2022-09-09T09:49:05;5.30;;;3.33;;
29362;SDS011;16349;53.672;10.014;2022-09-09T09:51:37;3.73;;;3.20;;
29362;SDS011;16349;53.672;10.014;2022-09-09T09:54:08;4.50;;;3.13;;
29362;SDS011;16349;53.672;10.014;2022-09-09T09:56:43;4.27;;;2.23;;
29362;SDS011;16349;53.672;10.014;2022-09-09T10:02:11;4.53;;;2.70;;
29362;SDS011;16349;53.672;10.014;2022-09-09T10:04:41;3.80;;;1.90;;
29362;SDS011;16349;53.672;10.014;2022-09-09T10:07:10;5.43;;;3.33;;
29362;SDS011;16349;53.672;10.014;2022-09-09T10:09:38;5.07;;;3.17;;
29362;SDS011;16349;53.672;10.014;2022-09-09T10:12:06;3.70;;;2.87;;
29362;SDS011;16349;53.672;10.014;2022-09-09T10:14:46;4.17;;;3.00;;
29362;SDS011;16349;53.672;10.014;2022-09-09T10:17:21;5.03;;;3.10;;
29362;SDS011;16349;53.672;10.014;2022-09-09T10:19:56;5.60;;;2.67;;
29362;SDS011;16349;53.672;10.014;2022-09-09T10:22:37;4.03;;;2.20;;
29362;SDS011;16349;53.672;10.014;2022-09-09T10:25:13;2.63;;;2.10;;
29362;SDS011;16349;53.672;10.014;2022-09-09T10:27:56;4.57;;;1.90;;
29362;SDS011;16349;53.672;10.014;2022-09-09T10:30:38;1.87;;;1.67;;
29362;SDS011;16349;53.672;10.014;2022-09-09T10:33:18;4.40;;;1.90;;
29362;SDS011;16349;53.672;10.014;2022-09-09T10:35:53;3.10;;;1.60;;
29362;SDS011;16349;53.672;10.014;2022-09-09T10:38:33;2.50;;;1.90;;
29362;SDS011;16349;53.672;10.014;2022-09-09T10:41:11;2.77;;;1.53;;
29362;SDS011;16349;53.672;10.014;2022-09-09T10:46:33;2.20;;;1.07;;
29362;SDS011;16349;53.672;10.014;2022-09-09T10:49:15;2.40;;;1.40;;
29362;SDS011;16349;53.672;10.014;2022-09-09T10:51:51;3.20;;;1.33;;
29362;SDS011;16349;53.672;10.014;2022-09-09T10:54:34;1.03;;;0.90;;
29362;SDS011;16349;53.672;10.014;2022-09-09T10:57:11;3.20;;;1.20;;
29362;SDS011;16349;53.672;10.014;2022-09-09T10:59:43;2.83;;;0.97;;
29362;SDS011;16349;53.672;10.014;2022-09-09T11:02:15;1.97;;;1.07;;
29362;SDS011;16349;53.672;10.014;2022-09-09T11:04:48;2.37;;;1.20;;
29362;SDS011;16349;53.672;10.014;2022-09-09T11:07:22;1.80;;;1.00;;
29362;SDS011;16349;53.672;10.014;2022-09-09T11:09:55;1.83;;;1.00;;
29362;SDS011;16349;53.672;10.014;2022-09-09T11:12:27;4.20;;;1.20;;
29362;SDS011;16349;53.672;10.014;2022-09-09T11:14:57;2.80;;;1.10;;
29362;SDS011;16349;53.672;10.014;2022-09-09T11:17:32;2.10;;;1.00;;
29362;SDS011;16349;53.672;10.014;2022-09-09T11:20:06;3.40;;;1.20;;
29362;SDS011;16349;53.672;10.014;2022-09-09T11:22:39;4.17;;;1.20;;
29362;SDS011;16349;53.672;10.014;2022-09-09T11:25:14;1.40;;;1.20;;
29362;SDS011;16349;53.672;10.014;2022-09-09T11:27:46;1.43;;;1.17;;
29362;SDS011;16349;53.672;10.014;2022-09-09T11:30:22;1.23;;;1.07;;
29362;SDS011;16349;53.672;10.014;2022-09-09T11:33:00;3.23;;;1.20;;
29362;SDS011;16349;53.672;10.014;2022-09-09T11:35:58;1.27;;;1.13;;
29362;SDS011;16349;53.672;10.014;2022-09-09T11:38:44;3.63;;;0.97;;
29362;SDS011;16349;53.672;10.014;2022-09-09T11:41:12;1.20;;;1.10;;
29362;SDS011;16349;53.672;10.014;2022-09-09T11:43:41;1.57;;;1.10;;
29362;SDS011;16349;53.672;10.014;2022-09-09T11:46:10;1.80;;;1.10;;
29362;SDS011;16349;53.672;10.014;2022-09-09T11:48:40;1.67;;;1.10;;
29362;SDS011;16349;53.672;10.014;2022-09-09T11:51:12;1.50;;;1.00;;
29362;SDS011;16349;53.672;10.014;2022-09-09T11:53:53;1.23;;;1.03;;
29362;SDS011;16349;53.672;10.014;2022-09-09T11:56:25;0.77;;;0.73;;
29362;SDS011;16349;53.672;10.014;2022-09-09T11:58:54;2.20;;;0.80;;
29362;SDS011;16349;53.672;10.014;2022-09-09T12:01:28;1.80;;;0.70;;
29362;SDS011;16349;53.672;10.014;2022-09-09T12:04:06;2.30;;;1.00;;
29362;SDS011;16349;53.672;10.014;2022-09-09T12:06:44;1.10;;;1.00;;
29362;SDS011;16349;53.672;10.014;2022-09-09T12:09:17;1.10;;;1.00;;
29362;SDS011;16349;53.672;10.014;2022-09-09T12:11:48;1.43;;;1.30;;
29362;SDS011;16349;53.672;10.014;2022-09-09T12:14:19;2.20;;;0.90;;
29362;SDS011;16349;53.672;10.014;2022-09-09T12:16:48;4.87;;;1.20;;
29362;SDS011;16349;53.672;10.014;2022-09-09T12:19:21;3.53;;;1.17;;
29362;SDS011;16349;53.672;10.014;2022-09-09T12:21:54;2.27;;;0.90;;
29362;SDS011;16349;53.672;10.014;2022-09-09T12:24:29;2.10;;;0.90;;
29362;SDS011;16349;53.672;10.014;2022-09-09T12:27:03;2.15;;;0.98;;
29362;SDS011;16349;53.672;10.014;2022-09-09T12:29:40;2.80;;;1.70;;
29362;SDS011;16349;53.672;10.014;2022-09-09T12:32:14;2.70;;;1.20;;
29362;SDS011;16349;53.672;10.014;2022-09-09T12:34:44;2.67;;;1.27;;
29362;SDS011;16349;53.672;10.014;2022-09-09T12:37:21;1.65;;;1.02;;
29362;SDS011;16349;53.672;10.014;2022-09-09T12:39:55;2.70;;;1.20;;
29362;SDS011;16349;53.672;10.014;2022-09-09T12:42:23;2.22;;;1.48;;
29362;SDS011;16349;53.672;10.014;2022-09-09T12:44:51;1.58;;;0.90;;
29362;SDS011;16349;53.672;10.014;2022-09-09T12:47:24;2.17;;;1.20;;
29362;SDS011;16349;53.672;10.014;2022-09-09T12:50:00;1.20;;;1.10;;
29362;SDS011;16349;53.672;10.014;2022-09-09T12:52:29;0.93;;;0.80;;
29362;SDS011;16349;53.672;10.014;2022-09-09T12:54:59;1.27;;;1.17;;
29362;SDS011;16349;53.672;10.014;2022-09-09T12:57:30;1.57;;;1.10;;
29362;SDS011;16349;53.672;10.014;2022-09-09T13:00:12;2.20;;;1.00;;
29362;SDS011;16349;53.672;10.014;2022-09-09T13:02:46;3.35;;;1.65;;
29362;SDS011;16349;53.672;10.014;2022-09-09T13:05:16;4.13;;;1.67;;
29362;SDS011;16349;53.672;10.014;2022-09-09T13:07:47;3.13;;;1.30;;
29362;SDS011;16349;53.672;10.014;2022-09-09T13:10:15;2.00;;;1.27;;
29362;SDS011;16349;53.672;10.014;2022-09-09T13:12:49;3.23;;;1.40;;
29362;SDS011;16349;53.672;10.014;2022-09-09T13:15:19;2.40;;;1.67;;
29362;SDS011;16349;53.672;10.014;2022-09-09T13:17:51;4.93;;;2.20;;
29362;SDS011;16349;53.672;10.014;2022-09-09T13:20:20;4.83;;;2.70;;
29362;SDS011;16349;53.672;10.014;2022-09-09T13:22:50;2.53;;;2.00;;
29362;SDS011;16349;53.672;10.014;2022-09-09T13:25:23;5.63;;;2.97;;
29362;SDS011;16349;53.672;10.014;2022-09-09T13:27:52;4.00;;;2.30;;
29362;SDS011;16349;53.672;10.014;2022-09-09T13:30:26;4.13;;;2.90;;
29362;SDS011;16349;53.672;10.014;2022-09-09T13:33:06;5.80;;;2.40;;
29362;SDS011;16349;53.672;10.014;2022-09-09T13:35:49;3.93;;;2.70;;
29362;SDS011;16349;53.672;10.014;2022-09-09T13:38:19;5.87;;;2.50;;
29362;SDS011;16349;53.672;10.014;2022-09-09T13:40:53;3.70;;;2.00;;
29362;SDS011;16349;53.672;10.014;2022-09-09T13:43:23;3.30;;;2.50;;
29362;SDS011;16349;53.672;10.014;2022-09-09T13:45:54;2.80;;;2.40;;
29362;SDS011;16349;53.672;10.014;2022-09-09T13:48:23;6.03;;;4.00;;
29362;SDS011;16349;53.672;10.014;2022-09-09T13:50:55;4.57;;;3.37;;
29362;SDS011;16349;53.672;10.014;2022-09-09T13:53:25;5.83;;;2.90;;
29362;SDS011;16349;53.672;10.014;2022-09-09T13:55:52;7.50;;;3.73;;
29362;SDS011;16349;53.672;10.014;2022-09-09T13:58:19;8.17;;;3.47;;
29362;SDS011;16349;53.672;10.014;2022-09-09T14:00:47;6.60;;;3.70;;
29362;SDS011;16349;53.672;10.014;2022-09-09T14:03:15;4.20;;;2.97;;
29362;SDS011;16349;53.672;10.014;2022-09-09T14:05:42;5.00;;;3.40;;
29362;SDS011;16349;53.672;10.014;2022-09-09T14:08:11;4.40;;;3.40;;
29362;SDS011;16349;53.672;10.014;2022-09-09T14:10:44;3.63;;;2.90;;
29362;SDS011;16349;53.672;10.014;2022-09-09T14:13:11;3.90;;;2.83;;
29362;SDS011;16349;53.672;10.014;2022-09-09T14:15:38;4.13;;;3.40;;
29362;SDS011;16349;53.672;10.014;2022-09-09T14:18:04;4.83;;;2.77;;
29362;SDS011;16349;53.672;10.014;2022-09-09T14:20:31;4.40;;;3.03;;
29362;SDS011;16349;53.672;10.014;2022-09-09T14:22:58;5.87;;;2.90;;
29362;SDS011;16349;53.672;10.014;2022-09-09T14:25:24;3.07;;;2.83;;
29362;SDS011;16349;53.672;10.014;2022-09-09T14:27:53;6.23;;;3.30;;
29362;SDS011;16349;53.672;10.014;2022-09-09T14:30:19;8.03;;;3.07;;
29362;SDS011;16349;53.672;10.014;2022-09-09T14:32:46;6.57;;;3.30;;
29362;SDS011;16349;53.672;10.014;2022-09-09T14:35:13;3.20;;;2.90;;
29362;SDS011;16349;53.672;10.014;2022-09-09T14:37:42;3.17;;;2.87;;
29362;SDS011;16349;53.672;10.014;2022-09-09T14:40:09;5.60;;;3.50;;
29362;SDS011;16349;53.672;10.014;2022-09-09T14:42:37;3.37;;;3.07;;
29362;SDS011;16349;53.672;10.014;2022-09-09T14:45:05;4.23;;;3.23;;
29362;SDS011;16349;53.672;10.014;2022-09-09T14:47:33;3.40;;;3.20;;
29362;SDS011;16349;53.672;10.014;2022-09-09T14:50:02;3.70;;;3.33;;
29362;SDS011;16349;53.672;10.014;2022-09-09T14:52:30;7.07;;;3.40;;
29362;SDS011;16349;53.672;10.014;2022-09-09T14:54:57;4.30;;;3.90;;
29362;SDS011;16349;53.672;10.014;2022-09-09T14:57:24;3.50;;;3.17;;
29362;SDS011;16349;53.672;10.014;2022-09-09T14:59:51;5.67;;;3.40;;